Main page
METAR-TAF:

METAR-TAF

Airports :

Winston Field Airport

Snyder, Texas, United States

latitude: 32-41-36N, longitude: 100-57-01W, elevation: 2430 ft

Current weather observation

The report was made 9 minutes ago, at 12:55 UTC
Wind 5 mph from the South/Southwest
Temperature 79°F
Humidity 51%
Pressure 30.07 in. Hg
Visibility: 10 miles
Clear sky

METAR: KSNK 171255Z AUTO 20004KT 10SM CLR 26/15 A3007 RMK AO2 T02630146

Time: 08:04 (13:04 UTC)


TAF: missing

Weather observations and forecasts of more than 4000 airports (METAR and TAF reports).

The available stations are represented by yellow and red dots on the map.

Hover mouse over dot to see the name of the station.

Then click to see weather observations and forecasts.

To change the map : click on the green buttons with a black cross to zoom in, on the green button with a dash to zoom out, or on the green arrows for adjacent maps.


METAR-TAF: